Time;durP1;ratioP1;P1;durP2;ratioP2;P2;SDS_P1;SDS_P2;PMS_P1;PMS_P2;Temp;Humidity;BMP_temperature;BMP_pressure;BME280_temperature;BME280_humidity;BME280_pressure;Samples;Min_cycle;Max_cycle;Signal;HPM_P1;HPM_P2
2023/06/12 00:02:05;;;;;;;6.07;3.80;;;;;;;;;;5044427;28;20582;-60
2023/06/12 00:04:30;;;;;;;5.73;3.50;;;;;;;;;;5058875;28;20278;-60
2023/06/12 00:06:56;;;;;;;5.17;3.73;;;;;;;;;;5075617;28;20307;-60
2023/06/12 00:09:21;;;;;;;7.15;3.90;;;;;;;;;;5039693;28;20339;-59
2023/06/12 00:11:46;;;;;;;7.40;3.95;;;;;;;;;;5058857;28;20017;-59
2023/06/12 00:14:11;;;;;;;5.30;3.50;;;;;;;;;;5042816;28;20025;-61
2023/06/12 00:16:37;;;;;;;5.70;3.77;;;;;;;;;;5043546;28;20251;-60
2023/06/12 00:19:03;;;;;;;6.20;3.83;;;;;;;;;;5043581;28;20255;-60
2023/06/12 00:21:28;;;;;;;6.50;4.05;;;;;;;;;;5040779;28;20032;-60
2023/06/12 00:23:54;;;;;;;6.70;4.17;;;;;;;;;;5041717;28;20037;-60
2023/06/12 00:26:19;;;;;;;8.33;3.90;;;;;;;;;;5039637;28;20283;-60
2023/06/12 00:28:45;;;;;;;6.18;4.05;;;;;;;;;;5043597;28;20116;-60
2023/06/12 00:31:10;;;;;;;6.57;4.07;;;;;;;;;;5041701;28;20036;-60
2023/06/12 00:33:36;;;;;;;5.30;3.93;;;;;;;;;;5043250;28;20194;-60
2023/06/12 00:36:01;;;;;;;6.47;3.70;;;;;;;;;;5042137;28;20287;-60
2023/06/12 00:38:27;;;;;;;7.25;4.13;;;;;;;;;;5043082;28;20033;-60
2023/06/12 00:40:52;;;;;;;6.37;4.40;;;;;;;;;;5057312;28;20040;-60
2023/06/12 00:43:17;;;;;;;5.97;4.20;;;;;;;;;;5043165;28;20041;-60
2023/06/12 00:45:42;;;;;;;5.73;3.93;;;;;;;;;;5042057;28;20114;-60
2023/06/12 00:48:08;;;;;;;6.27;3.73;;;;;;;;;;5024551;28;20809;-60
2023/06/12 00:50:34;;;;;;;5.83;3.77;;;;;;;;;;5057322;28;20302;-60
2023/06/12 00:52:59;;;;;;;5.72;4.25;;;;;;;;;;5043448;28;20657;-60
2023/06/12 00:55:25;;;;;;;5.88;4.18;;;;;;;;;;5048595;28;20051;-59
2023/06/12 00:57:51;;;;;;;7.70;3.67;;;;;;;;;;5026959;28;20048;-60
2023/06/12 01:00:17;;;;;;;7.80;4.00;;;;;;;;;;5045006;28;20091;-60
2023/06/12 01:02:44;;;;;;;6.13;3.80;;;;;;;;;;5028747;28;20033;-60
2023/06/12 01:05:11;;;;;;;5.97;4.00;;;;;;;;;;5043030;28;20124;-60
2023/06/12 01:07:43;;;;;;;5.65;4.55;;;;;;;;;;5045542;28;20041;-60
2023/06/12 01:10:15;;;;;;;6.97;4.53;;;;;;;;;;5025102;28;20065;-60
2023/06/12 01:12:40;;;;;;;6.53;4.40;;;;;;;;;;5047525;28;20337;-60
2023/06/12 01:15:06;;;;;;;5.30;3.80;;;;;;;;;;5049052;28;20476;-60
2023/06/12 01:17:31;;;;;;;5.88;4.10;;;;;;;;;;5060846;28;20477;-60
2023/06/12 01:19:56;;;;;;;8.93;4.60;;;;;;;;;;5046270;28;20234;-60
2023/06/12 01:22:21;;;;;;;7.47;4.15;;;;;;;;;;5044857;28;20125;-60
2023/06/12 01:24:53;;;;;;;7.45;4.25;;;;;;;;;;5045047;28;20112;-60
2023/06/12 01:27:36;;;;;;;6.85;4.03;;;;;;;;;;5045790;28;20103;-60
2023/06/12 01:30:20;;;;;;;7.22;4.00;;;;;;;;;;5044740;28;20515;-60
2023/06/12 01:32:47;;;;;;;6.65;4.70;;;;;;;;;;5045111;28;20029;-60
2023/06/12 01:35:17;;;;;;;6.25;4.28;;;;;;;;;;5030420;28;20094;-59
2023/06/12 01:37:47;;;;;;;8.73;5.13;;;;;;;;;;5041599;28;20049;-60
2023/06/12 01:40:13;;;;;;;;;;;;;;;;;;5046250;28;20037;-60
2023/06/12 01:42:38;;;;;;;7.75;4.80;;;;;;;;;;5045276;28;19916;-59
2023/06/12 01:45:03;;;;;;;6.90;4.70;;;;;;;;;;5044026;28;20035;-60
2023/06/12 01:47:29;;;;;;;8.65;4.93;;;;;;;;;;5070265;28;20303;-60
2023/06/12 01:49:54;;;;;;;8.10;4.45;;;;;;;;;;5060600;28;20052;-60
2023/06/12 01:52:19;;;;;;;7.57;4.72;;;;;;;;;;5044304;28;20426;-60
2023/06/12 01:54:47;;;;;;;7.43;4.97;;;;;;;;;;5045962;28;20037;-61
2023/06/12 01:57:13;;;;;;;6.53;4.43;;;;;;;;;;5044137;28;20650;-60
2023/06/12 01:59:38;;;;;;;8.60;4.68;;;;;;;;;;5046120;28;20047;-60
2023/06/12 02:02:04;;;;;;;6.97;4.35;;;;;;;;;;5045582;28;20040;-61
2023/06/12 02:04:29;;;;;;;7.05;4.57;;;;;;;;;;5077310;28;20494;-61
2023/06/12 02:06:54;;;;;;;6.05;4.50;;;;;;;;;;5045357;28;20913;-61
2023/06/12 02:09:20;;;;;;;7.25;4.72;;;;;;;;;;5045931;28;20457;-60
2023/06/12 02:11:45;;;;;;;6.35;4.10;;;;;;;;;;5044517;28;20045;-60
2023/06/12 02:14:10;;;;;;;10.20;4.50;;;;;;;;;;5046145;28;20198;-60
2023/06/12 02:16:35;;;;;;;7.43;4.50;;;;;;;;;;5077763;28;20285;-60
2023/06/12 02:19:01;;;;;;;6.50;4.40;;;;;;;;;;5075945;28;20295;-60
2023/06/12 02:21:26;;;;;;;8.20;4.85;;;;;;;;;;5059964;28;20951;-60
2023/06/12 02:23:52;;;;;;;8.52;4.22;;;;;;;;;;5024500;28;20091;-60
2023/06/12 02:26:17;;;;;;;8.35;4.93;;;;;;;;;;5043747;28;20037;-60
2023/06/12 02:28:42;;;;;;;6.60;4.63;;;;;;;;;;5044354;28;20037;-60
2023/06/12 02:31:07;;;;;;;7.77;4.93;;;;;;;;;;5044230;28;20060;-60
2023/06/12 02:33:33;;;;;;;8.60;4.90;;;;;;;;;;5045039;28;20299;-60
2023/06/12 02:35:58;;;;;;;8.05;4.70;;;;;;;;;;5044798;28;20041;-61
2023/06/12 02:38:23;;;;;;;8.93;4.83;;;;;;;;;;5044463;28;20047;-60
2023/06/12 02:40:48;;;;;;;6.27;4.53;;;;;;;;;;5043653;28;20287;-62
2023/06/12 02:43:14;;;;;;;6.47;4.55;;;;;;;;;;5051920;28;20374;-61
2023/06/12 02:45:39;;;;;;;7.10;4.55;;;;;;;;;;5044998;28;20144;-61
2023/06/12 02:48:05;;;;;;;6.80;5.15;;;;;;;;;;5045309;28;20057;-61
2023/06/12 02:50:30;;;;;;;7.03;4.47;;;;;;;;;;5076766;28;20053;-60
2023/06/12 02:52:55;;;;;;;6.57;4.23;;;;;;;;;;5053499;28;20459;-62
2023/06/12 02:55:21;;;;;;;6.50;4.87;;;;;;;;;;5076883;28;20370;-61
2023/06/12 02:57:46;;;;;;;7.32;4.38;;;;;;;;;;5044575;28;20349;-61
2023/06/12 03:00:13;;;;;;;6.83;4.87;;;;;;;;;;5045452;28;20416;-61
2023/06/12 03:02:42;;;;;;;8.55;4.97;;;;;;;;;;5077096;28;20367;-61
2023/06/12 03:05:08;;;;;;;9.65;5.28;;;;;;;;;;5043414;28;20133;-60
2023/06/12 03:07:36;;;;;;;7.28;4.22;;;;;;;;;;5044913;28;20116;-60
2023/06/12 03:10:01;;;;;;;5.40;4.25;;;;;;;;;;5052602;28;20046;-60
2023/06/12 03:12:27;;;;;;;8.23;4.60;;;;;;;;;;5044705;28;20075;-60
2023/06/12 03:14:52;;;;;;;10.23;4.57;;;;;;;;;;5045747;28;20276;-60
2023/06/12 03:17:19;;;;;;;7.75;4.43;;;;;;;;;;5076760;28;21201;-60
2023/06/12 03:19:45;;;;;;;5.85;3.97;;;;;;;;;;5044315;28;20033;-60
2023/06/12 03:22:10;;;;;;;6.70;4.50;;;;;;;;;;5043670;28;20457;-60
2023/06/12 03:24:37;;;;;;;8.15;4.85;;;;;;;;;;5047540;28;20024;-60
2023/06/12 03:27:02;;;;;;;6.22;4.70;;;;;;;;;;5054780;28;20057;-60
2023/06/12 03:29:27;;;;;;;5.55;4.38;;;;;;;;;;5044820;28;20078;-59
2023/06/12 03:31:53;;;;;;;6.97;4.80;;;;;;;;;;5076507;28;20399;-60
2023/06/12 03:34:19;;;;;;;5.50;4.10;;;;;;;;;;5043291;28;20333;-60
2023/06/12 03:36:44;;;;;;;6.40;4.47;;;;;;;;;;5044224;28;20028;-60
2023/06/12 03:39:09;;;;;;;6.95;4.35;;;;;;;;;;5043582;28;20044;-59
2023/06/12 03:41:35;;;;;;;7.97;4.40;;;;;;;;;;5043990;28;20033;-59
2023/06/12 03:44:00;;;;;;;6.75;4.50;;;;;;;;;;5075655;28;20098;-60
2023/06/12 03:46:25;;;;;;;4.38;3.85;;;;;;;;;;5080948;28;20139;-60
2023/06/12 03:48:51;;;;;;;8.02;4.50;;;;;;;;;;5044771;28;20124;-60
2023/06/12 03:51:16;;;;;;;6.63;4.80;;;;;;;;;;5042467;28;20531;-60
2023/06/12 03:53:41;;;;;;;6.75;4.35;;;;;;;;;;5033272;28;20304;-60
2023/06/12 03:56:07;;;;;;;7.43;4.90;;;;;;;;;;5031422;28;20044;-61
2023/06/12 03:58:32;;;;;;;7.13;4.72;;;;;;;;;;5034388;28;20040;-61
2023/06/12 04:00:57;;;;;;;7.90;4.68;;;;;;;;;;5029983;28;20059;-60
2023/06/12 04:03:24;;;;;;;7.17;4.57;;;;;;;;;;5027892;28;20091;-60
2023/06/12 04:05:49;;;;;;;8.07;5.07;;;;;;;;;;5028286;28;20313;-62
2023/06/12 04:08:15;;;;;;;6.97;4.50;;;;;;;;;;5030223;28;20065;-61
2023/06/12 04:10:40;;;;;;;5.50;4.40;;;;;;;;;;5016023;28;20479;-61
2023/06/12 04:13:05;;;;;;;8.05;4.68;;;;;;;;;;5032690;28;20409;-60
2023/06/12 04:15:31;;;;;;;5.75;4.50;;;;;;;;;;5035967;28;20037;-60
2023/06/12 04:17:57;;;;;;;6.57;4.53;;;;;;;;;;5038007;28;20025;-61
2023/06/12 04:20:23;;;;;;;8.15;4.88;;;;;;;;;;5018704;28;20316;-61
2023/06/12 04:22:49;;;;;;;8.80;5.03;;;;;;;;;;5037725;28;20349;-61
2023/06/12 04:25:14;;;;;;;6.65;4.95;;;;;;;;;;5036871;28;20164;-61
2023/06/12 04:27:41;;;;;;;6.95;4.32;;;;;;;;;;5032411;28;20126;-60
2023/06/12 04:30:07;;;;;;;6.82;4.57;;;;;;;;;;5062526;28;20457;-61
2023/06/12 04:32:33;;;;;;;9.25;5.00;;;;;;;;;;5026309;28;20078;-60
2023/06/12 04:34:58;;;;;;;7.55;4.60;;;;;;;;;;5042011;28;20052;-61
2023/06/12 04:37:25;;;;;;;6.72;5.00;;;;;;;;;;5037579;28;20029;-62
2023/06/12 04:39:52;;;;;;;7.45;4.82;;;;;;;;;;5032267;28;20038;-64
2023/06/12 04:42:18;;;;;;;10.40;6.05;;;;;;;;;;5035158;28;20013;-61
2023/06/12 04:44:44;;;;;;;6.60;5.10;;;;;;;;;;5069066;28;20021;-61
2023/06/12 04:47:11;;;;;;;8.13;4.75;;;;;;;;;;5038207;28;20045;-60
2023/06/12 04:49:37;;;;;;;7.35;4.65;;;;;;;;;;5040048;28;20106;-60
2023/06/12 04:52:03;;;;;;;11.15;5.05;;;;;;;;;;5040983;28;20095;-61
2023/06/12 04:54:30;;;;;;;6.55;5.15;;;;;;;;;;5057318;28;20033;-61
2023/06/12 04:56:56;;;;;;;10.88;5.38;;;;;;;;;;5034390;28;20096;-60
2023/06/12 04:59:21;;;;;;;7.43;5.33;;;;;;;;;;5036311;28;20087;-61
2023/06/12 05:01:47;;;;;;;8.07;5.20;;;;;;;;;;5036006;28;20301;-61
2023/06/12 05:04:12;;;;;;;7.55;5.35;;;;;;;;;;5037461;28;20021;-61
2023/06/12 05:06:39;;;;;;;7.60;4.93;;;;;;;;;;5034536;28;20033;-61
2023/06/12 05:09:07;;;;;;;7.35;4.68;;;;;;;;;;5039258;28;20087;-61
2023/06/12 05:11:32;;;;;;;9.02;4.80;;;;;;;;;;5034478;28;20049;-61
2023/06/12 05:13:57;;;;;;;6.32;4.97;;;;;;;;;;5034257;28;20044;-61
2023/06/12 05:16:23;;;;;;;10.17;5.23;;;;;;;;;;5035531;28;20041;-59
2023/06/12 05:18:48;;;;;;;6.65;4.63;;;;;;;;;;5062861;28;20629;-60
2023/06/12 05:21:14;;;;;;;7.77;5.13;;;;;;;;;;5031787;28;20398;-61
2023/06/12 05:23:39;;;;;;;10.18;5.60;;;;;;;;;;5033921;28;20298;-59
2023/06/12 05:26:04;;;;;;;11.17;5.60;;;;;;;;;;5063988;28;20038;-61
2023/06/12 05:28:30;;;;;;;8.90;5.40;;;;;;;;;;5067355;28;20318;-61
2023/06/12 05:30:55;;;;;;;8.67;5.60;;;;;;;;;;5033057;28;20159;-61
2023/06/12 05:33:20;;;;;;;9.70;4.93;;;;;;;;;;5069743;28;20037;-59
2023/06/12 05:35:47;;;;;;;9.10;5.33;;;;;;;;;;5050036;28;20025;-60
2023/06/12 05:38:12;;;;;;;8.00;5.20;;;;;;;;;;5055215;28;20292;-59
2023/06/12 05:40:37;;;;;;;10.30;5.68;;;;;;;;;;5037620;28;20041;-59
2023/06/12 05:43:03;;;;;;;7.38;5.55;;;;;;;;;;5040567;28;20045;-62
2023/06/12 05:45:28;;;;;;;7.13;5.10;;;;;;;;;;5032502;28;20495;-57
2023/06/12 05:47:53;;;;;;;10.00;6.00;;;;;;;;;;5066101;28;20312;-58
2023/06/12 05:50:18;;;;;;;8.30;5.15;;;;;;;;;;5032591;28;20090;-59
2023/06/12 05:52:44;;;;;;;9.57;5.57;;;;;;;;;;5064793;28;20212;-59
2023/06/12 05:55:09;;;;;;;10.93;6.33;;;;;;;;;;5035925;28;20478;-59
2023/06/12 05:57:34;;;;;;;7.00;5.67;;;;;;;;;;5031610;28;20318;-59
2023/06/12 05:59:59;;;;;;;9.52;5.93;;;;;;;;;;5032474;28;20444;-57
2023/06/12 06:02:25;;;;;;;10.63;5.73;;;;;;;;;;5052781;28;20145;-58
2023/06/12 06:04:54;;;;;;;11.60;6.85;;;;;;;;;;5030430;28;20306;-60
2023/06/12 06:07:19;;;;;;;9.50;6.45;;;;;;;;;;5033646;28;20077;-58
2023/06/12 06:09:45;;;;;;;10.10;6.57;;;;;;;;;;5033820;28;20124;-58
2023/06/12 06:12:10;;;;;;;9.75;6.57;;;;;;;;;;5032068;28;20125;-58
2023/06/12 06:14:35;;;;;;;10.13;6.57;;;;;;;;;;5032286;28;20036;-57
2023/06/12 06:17:01;;;;;;;11.37;6.40;;;;;;;;;;5034956;28;20183;-59
2023/06/12 06:19:26;;;;;;;10.67;6.23;;;;;;;;;;5033129;28;20087;-59
2023/06/12 06:21:51;;;;;;;8.67;5.83;;;;;;;;;;5029142;28;20295;-61
2023/06/12 06:24:16;;;;;;;8.93;6.23;;;;;;;;;;5034804;28;20036;-58
2023/06/12 06:26:42;;;;;;;9.40;6.20;;;;;;;;;;5039304;28;20303;-59
2023/06/12 06:29:07;;;;;;;10.02;6.93;;;;;;;;;;5044174;28;20047;-60
2023/06/12 06:31:32;;;;;;;12.82;6.70;;;;;;;;;;5041985;28;20563;-59
2023/06/12 06:33:57;;;;;;;9.63;5.70;;;;;;;;;;5037503;28;20044;-59
2023/06/12 06:36:23;;;;;;;9.47;5.80;;;;;;;;;;5033281;28;20116;-60
2023/06/12 06:38:48;;;;;;;8.85;5.25;;;;;;;;;;5034263;28;20296;-60
2023/06/12 06:41:13;;;;;;;8.55;5.70;;;;;;;;;;5031753;28;20037;-60
2023/06/12 06:43:39;;;;;;;10.43;5.03;;;;;;;;;;5031025;28;20412;-61
2023/06/12 06:46:04;;;;;;;8.50;5.28;;;;;;;;;;5030187;28;20040;-58
2023/06/12 06:48:29;;;;;;;9.37;5.73;;;;;;;;;;5031984;28;20459;-60
2023/06/12 06:50:54;;;;;;;12.63;5.37;;;;;;;;;;5029940;28;20423;-60
2023/06/12 06:53:20;;;;;;;7.47;5.03;;;;;;;;;;5028298;28;20296;-59
2023/06/12 06:55:45;;;;;;;7.63;4.83;;;;;;;;;;5032386;28;20150;-60
2023/06/12 06:58:11;;;;;;;8.77;5.47;;;;;;;;;;5032597;28;20055;-61
2023/06/12 07:00:36;;;;;;;8.53;4.80;;;;;;;;;;5062114;28;20470;-60
2023/06/12 07:03:02;;;;;;;8.27;4.23;;;;;;;;;;5033583;28;20498;-59
2023/06/12 07:05:27;;;;;;;8.48;4.50;;;;;;;;;;5068943;28;20404;-59
2023/06/12 07:07:52;;;;;;;9.98;4.07;;;;;;;;;;5035131;28;20052;-60
2023/06/12 07:10:18;;;;;;;10.07;4.70;;;;;;;;;;5039056;28;20037;-58
2023/06/12 07:12:43;;;;;;;8.23;4.20;;;;;;;;;;5039562;28;20487;-60
2023/06/12 07:15:09;;;;;;;8.43;4.60;;;;;;;;;;5043572;28;20325;-59
2023/06/12 07:17:34;;;;;;;8.27;4.45;;;;;;;;;;5039794;28;20052;-60
2023/06/12 07:19:59;;;;;;;7.43;4.18;;;;;;;;;;5041787;28;20457;-59
2023/06/12 07:22:24;;;;;;;7.50;4.27;;;;;;;;;;5037362;28;20039;-60
2023/06/12 07:24:50;;;;;;;10.33;4.10;;;;;;;;;;5034884;28;20315;-60
2023/06/12 07:27:15;;;;;;;6.72;3.72;;;;;;;;;;5018020;28;20307;-60
2023/06/12 07:29:41;;;;;;;9.15;4.40;;;;;;;;;;5040809;28;20037;-62
2023/06/12 07:32:06;;;;;;;8.77;4.30;;;;;;;;;;5038756;28;20071;-59
2023/06/12 07:34:31;;;;;;;7.93;4.40;;;;;;;;;;5038266;28;20037;-60
2023/06/12 07:36:58;;;;;;;14.53;5.17;;;;;;;;;;5033573;28;20025;-59
2023/06/12 07:39:24;;;;;;;8.18;4.25;;;;;;;;;;5066832;28;20361;-58
2023/06/12 07:41:49;;;;;;;11.48;4.15;;;;;;;;;;5033317;28;20494;-58
2023/06/12 07:44:14;;;;;;;7.40;4.00;;;;;;;;;;5034105;28;20037;-59
2023/06/12 07:46:41;;;;;;;8.98;3.70;;;;;;;;;;5041310;28;20304;-59
2023/06/12 07:49:06;;;;;;;7.43;3.97;;;;;;;;;;5033269;28;20057;-60
2023/06/12 07:51:31;;;;;;;9.35;3.70;;;;;;;;;;5030735;28;20056;-61
2023/06/12 07:53:56;;;;;;;7.87;3.73;;;;;;;;;;5029565;28;20487;-61
2023/06/12 07:56:22;;;;;;;6.45;4.03;;;;;;;;;;5035666;28;20393;-60
2023/06/12 07:58:47;;;;;;;6.82;3.38;;;;;;;;;;5012394;28;20064;-60
2023/06/12 08:01:13;;;;;;;7.45;3.50;;;;;;;;;;5059316;28;20047;-60
2023/06/12 08:03:39;;;;;;;6.10;3.75;;;;;;;;;;5040372;28;20046;-61
2023/06/12 08:06:11;;;;;;;4.70;3.00;;;;;;;;;;5029529;28;20045;-61
2023/06/12 08:08:56;;;;;;;5.57;3.30;;;;;;;;;;5061807;28;20058;-60
2023/06/12 08:11:21;;;;;;;4.95;3.65;;;;;;;;;;5030427;28;20037;-60
2023/06/12 08:13:46;;;;;;;8.75;4.03;;;;;;;;;;5061394;28;20086;-60
2023/06/12 08:16:11;;;;;;;6.38;3.17;;;;;;;;;;5031934;28;20462;-60
2023/06/12 08:18:37;;;;;;;6.40;3.37;;;;;;;;;;5034046;28;20044;-61
2023/06/12 08:21:02;;;;;;;6.70;3.55;;;;;;;;;;5034330;28;20040;-59
2023/06/12 08:23:27;;;;;;;5.65;3.13;;;;;;;;;;5039455;28;20029;-60
2023/06/12 08:25:53;;;;;;;5.97;3.27;;;;;;;;;;5039560;28;20029;-59
2023/06/12 08:28:18;;;;;;;7.07;3.67;;;;;;;;;;5037708;28;20136;-60
2023/06/12 08:30:43;;;;;;;7.03;3.40;;;;;;;;;;5028785;28;20033;-56
2023/06/12 08:33:10;;;;;;;5.60;3.20;;;;;;;;;;5028428;28;20368;-57
2023/06/12 08:35:36;;;;;;;5.97;3.55;;;;;;;;;;5029196;28;21908;-59
2023/06/12 08:38:01;;;;;;;5.43;3.47;;;;;;;;;;5029188;28;20518;-57
2023/06/12 08:40:26;;;;;;;7.82;3.60;;;;;;;;;;5027787;28;20487;-60
2023/06/12 08:42:52;;;;;;;5.35;3.45;;;;;;;;;;5027374;28;20829;-60
2023/06/12 08:45:20;;;;;;;5.90;3.35;;;;;;;;;;5028497;28;20109;-59
2023/06/12 08:47:49;;;;;;;6.38;3.42;;;;;;;;;;5010896;28;20068;-60
2023/06/12 08:50:16;;;;;;;8.75;3.85;;;;;;;;;;5028910;28;20034;-59
2023/06/12 08:52:41;;;;;;;5.20;3.50;;;;;;;;;;5043536;28;20621;-58
2023/06/12 08:55:10;;;;;;;7.47;3.92;;;;;;;;;;5045932;28;20326;-60
2023/06/12 08:57:35;;;;;;;6.95;3.92;;;;;;;;;;5049407;28;20039;-65
2023/06/12 09:00:01;;;;;;;9.35;4.28;;;;;;;;;;5060728;28;20041;-60
2023/06/12 09:02:27;;;;;;;7.82;4.40;;;;;;;;;;5031267;28;20060;-60
2023/06/12 09:04:55;;;;;;;7.00;3.75;;;;;;;;;;5062493;28;20068;-60
2023/06/12 09:07:21;;;;;;;8.13;4.10;;;;;;;;;;5030569;28;20116;-61
2023/06/12 09:09:47;;;;;;;6.27;3.80;;;;;;;;;;5030198;28;20437;-60
2023/06/12 09:12:13;;;;;;;7.63;3.92;;;;;;;;;;5028262;28;20112;-60
2023/06/12 09:14:38;;;;;;;5.80;3.88;;;;;;;;;;5028435;28;20044;-61
2023/06/12 09:17:04;;;;;;;7.55;3.70;;;;;;;;;;5052769;28;20026;-60
2023/06/12 09:19:43;;;;;;;6.20;3.83;;;;;;;;;;5032691;28;20045;-60
2023/06/12 09:22:08;;;;;;;8.95;4.15;;;;;;;;;;5029254;28;20036;-63
2023/06/12 09:24:33;;;;;;;5.05;3.40;;;;;;;;;;5051188;28;20056;-61
2023/06/12 09:27:00;;;;;;;4.93;3.63;;;;;;;;;;5031636;28;20898;-60
2023/06/12 09:29:25;;;;;;;6.07;3.85;;;;;;;;;;5063686;28;20148;-60
2023/06/12 09:31:51;;;;;;;6.32;3.50;;;;;;;;;;5031852;28;20175;-59
2023/06/12 09:34:17;;;;;;;7.82;3.78;;;;;;;;;;5032053;28;20736;-59
2023/06/12 09:36:42;;;;;;;6.03;3.85;;;;;;;;;;5063623;28;20518;-60
2023/06/12 09:39:08;;;;;;;7.10;4.30;;;;;;;;;;5029483;28;20122;-61
2023/06/12 09:41:34;;;;;;;6.38;4.00;;;;;;;;;;5030534;28;20506;-61
2023/06/12 09:44:02;;;;;;;5.93;3.88;;;;;;;;;;5032587;28;20041;-60
2023/06/12 09:46:28;;;;;;;7.07;4.00;;;;;;;;;;5032286;28;20059;-60
2023/06/12 09:48:59;;;;;;;9.10;4.03;;;;;;;;;;5030282;28;20041;-61
2023/06/12 09:51:25;;;;;;;5.25;3.88;;;;;;;;;;5030824;28;20315;-59
2023/06/12 09:53:50;;;;;;;8.07;4.25;;;;;;;;;;5032900;28;20609;-61
2023/06/12 09:56:16;;;;;;;5.82;3.88;;;;;;;;;;5032611;28;20143;-61
2023/06/12 09:58:41;;;;;;;7.90;4.05;;;;;;;;;;5033082;28;20069;-61
2023/06/12 10:01:07;;;;;;;8.00;3.97;;;;;;;;;;5030856;28;20144;-61
2023/06/12 10:03:34;;;;;;;5.13;3.58;;;;;;;;;;5032336;28;20070;-61
2023/06/12 10:05:59;;;;;;;6.55;3.72;;;;;;;;;;5035998;28;20095;-61
2023/06/12 10:08:24;;;;;;;5.82;3.17;;;;;;;;;;5035442;28;20048;-60
2023/06/12 10:10:50;;;;;;;8.20;3.47;;;;;;;;;;5031961;28;20016;-60
2023/06/12 10:13:15;;;;;;;6.22;3.45;;;;;;;;;;5031114;28;20025;-61
2023/06/12 10:15:40;;;;;;;6.40;3.53;;;;;;;;;;5064047;28;20550;-61
2023/06/12 10:18:05;;;;;;;4.90;3.10;;;;;;;;;;5032648;28;20474;-58
2023/06/12 10:20:31;;;;;;;5.38;3.40;;;;;;;;;;5050769;28;20035;-60
2023/06/12 10:22:56;;;;;;;6.03;3.58;;;;;;;;;;5047583;28;20339;-61
2023/06/12 10:25:21;;;;;;;7.32;3.50;;;;;;;;;;5030766;28;20059;-61
2023/06/12 10:27:47;;;;;;;6.57;3.58;;;;;;;;;;5012826;28;20033;-61
2023/06/12 10:30:12;;;;;;;5.80;3.53;;;;;;;;;;5030776;28;20127;-62
2023/06/12 10:32:39;;;;;;;6.22;3.20;;;;;;;;;;5045917;28;20593;-63
2023/06/12 10:35:05;;;;;;;8.93;3.08;;;;;;;;;;5061678;28;20032;-60
2023/06/12 10:37:39;;;;;;;5.18;2.92;;;;;;;;;;5045484;28;20525;-59
2023/06/12 10:40:09;;;;;;;6.28;3.80;;;;;;;;;;5045038;28;20578;-58
2023/06/12 10:42:43;;;;;;;6.30;3.45;;;;;;;;;;5030131;28;20071;-59
2023/06/12 10:45:19;;;;;;;7.00;3.13;;;;;;;;;;5029449;28;20048;-59
2023/06/12 10:48:05;;;;;;;5.00;2.72;;;;;;;;;;5005171;28;20060;-60
2023/06/12 10:50:31;;;;;;;5.95;2.85;;;;;;;;;;5034703;28;20059;-60
2023/06/12 10:52:56;;;;;;;6.30;2.80;;;;;;;;;;5027451;28;20037;-60
2023/06/12 10:55:22;;;;;;;5.40;2.83;;;;;;;;;;5031180;28;20052;-58
2023/06/12 10:57:49;;;;;;;5.40;2.72;;;;;;;;;;5031426;28;20670;-58
2023/06/12 11:00:16;;;;;;;4.45;2.72;;;;;;;;;;5048788;28;20304;-58
2023/06/12 11:02:42;;;;;;;8.48;2.83;;;;;;;;;;5033433;28;20523;-59
2023/06/12 11:05:07;;;;;;;5.43;2.80;;;;;;;;;;5030976;28;20044;-59
2023/06/12 11:07:32;;;;;;;4.28;2.80;;;;;;;;;;5017662;28;20491;-58
2023/06/12 11:09:58;;;;;;;4.30;2.60;;;;;;;;;;5029786;28;20041;-58
2023/06/12 11:12:23;;;;;;;4.27;2.97;;;;;;;;;;5036278;28;20825;-60
2023/06/12 11:14:48;;;;;;;6.33;3.20;;;;;;;;;;5032956;28;20499;-60
2023/06/12 11:17:13;;;;;;;4.93;3.00;;;;;;;;;;5042297;28;20293;-60
2023/06/12 11:19:39;;;;;;;5.43;2.87;;;;;;;;;;5029227;28;20053;-60
2023/06/12 11:22:04;;;;;;;6.43;2.90;;;;;;;;;;5030023;28;20068;-59
2023/06/12 11:24:30;;;;;;;4.53;3.28;;;;;;;;;;5028833;28;20138;-60
2023/06/12 11:26:55;;;;;;;6.78;3.25;;;;;;;;;;5013685;28;20120;-60
2023/06/12 11:29:22;;;;;;;4.72;3.15;;;;;;;;;;5031177;28;20129;-61
2023/06/12 11:32:04;;;;;;;6.03;2.72;;;;;;;;;;5065628;28;20987;-60
2023/06/12 11:34:33;;;;;;;5.32;3.10;;;;;;;;;;5048584;28;20512;-60
2023/06/12 11:37:08;;;;;;;6.85;3.17;;;;;;;;;;5036610;28;20554;-60
2023/06/12 11:39:34;;;;;;;4.80;3.00;;;;;;;;;;5032824;28;20040;-61
2023/06/12 11:42:00;;;;;;;4.97;2.92;;;;;;;;;;5030394;28;20037;-60
2023/06/12 11:44:25;;;;;;;4.60;2.57;;;;;;;;;;5029016;28;20053;-59
2023/06/12 11:46:51;;;;;;;3.47;2.57;;;;;;;;;;5026260;28;20401;-58
2023/06/12 11:49:16;;;;;;;5.88;2.97;;;;;;;;;;5029551;28;20299;-60
2023/06/12 11:51:42;;;;;;;4.17;2.43;;;;;;;;;;5044216;28;20060;-59
2023/06/12 11:54:09;;;;;;;5.00;3.08;;;;;;;;;;5027934;28;20086;-61
2023/06/12 11:56:34;;;;;;;5.35;2.92;;;;;;;;;;5043401;28;20338;-59
2023/06/12 11:58:59;;;;;;;5.23;2.93;;;;;;;;;;5028546;28;20121;-60
2023/06/12 12:01:25;;;;;;;2.97;2.23;;;;;;;;;;5028699;28;20299;-61
2023/06/12 12:03:51;;;;;;;4.35;2.42;;;;;;;;;;5042669;28;20792;-61
2023/06/12 12:06:17;;;;;;;4.43;2.60;;;;;;;;;;5073570;28;20041;-60
2023/06/12 12:08:42;;;;;;;3.30;2.38;;;;;;;;;;5042431;28;20055;-60
2023/06/12 12:11:17;;;;;;;4.72;2.22;;;;;;;;;;5074862;28;20193;-59
2023/06/12 12:13:52;;;;;;;4.28;2.75;;;;;;;;;;5058118;28;20067;-60
2023/06/12 12:16:24;;;;;;;4.25;2.60;;;;;;;;;;5043329;28;20047;-60
2023/06/12 12:18:49;;;;;;;3.92;2.55;;;;;;;;;;5074756;28;20103;-60
2023/06/12 12:21:17;;;;;;;3.78;2.60;;;;;;;;;;5041370;28;20546;-59
2023/06/12 12:23:42;;;;;;;4.18;2.55;;;;;;;;;;5057698;28;20044;-61
2023/06/12 12:26:12;;;;;;;3.73;2.40;;;;;;;;;;5042619;28;20026;-61
2023/06/12 12:28:37;;;;;;;6.90;2.70;;;;;;;;;;5042976;28;20053;-59
2023/06/12 12:31:02;;;;;;;5.27;2.77;;;;;;;;;;5040145;28;20017;-60
2023/06/12 12:33:28;;;;;;;3.93;3.07;;;;;;;;;;5042364;28;20834;-59
2023/06/12 12:35:53;;;;;;;5.90;3.00;;;;;;;;;;5057692;28;20453;-61
2023/06/12 12:38:18;;;;;;;3.53;2.63;;;;;;;;;;5025823;28;20021;-60
2023/06/12 12:40:43;;;;;;;3.83;2.70;;;;;;;;;;5054903;28;20045;-60
2023/06/12 12:43:09;;;;;;;4.00;3.00;;;;;;;;;;5041505;28;20495;-61
2023/06/12 12:45:34;;;;;;;5.63;3.07;;;;;;;;;;5042270;28;20414;-60
2023/06/12 12:47:59;;;;;;;4.90;2.63;;;;;;;;;;5038926;28;20518;-60
2023/06/12 12:50:25;;;;;;;4.38;2.45;;;;;;;;;;5003488;28;1118463;-60
2023/06/12 12:52:50;;;;;;;3.97;2.90;;;;;;;;;;5080888;28;20036;-61
2023/06/12 12:55:15;;;;;;;4.22;2.80;;;;;;;;;;5043134;28;20519;-59
2023/06/12 12:57:43;;;;;;;4.97;2.87;;;;;;;;;;5055763;28;20099;-60
2023/06/12 13:00:10;;;;;;;5.20;2.95;;;;;;;;;;5048724;28;20408;-60
2023/06/12 13:02:35;;;;;;;6.18;3.17;;;;;;;;;;5043268;28;20032;-60
2023/06/12 13:05:01;;;;;;;4.45;2.85;;;;;;;;;;5036000;28;20431;-61
2023/06/12 13:07:27;;;;;;;4.75;2.70;;;;;;;;;;5038384;28;20045;-59
2023/06/12 13:09:52;;;;;;;3.30;2.50;;;;;;;;;;5032136;28;20029;-60
2023/06/12 13:12:17;;;;;;;5.27;3.37;;;;;;;;;;5034815;28;20045;-60
2023/06/12 13:14:46;;;;;;;5.00;3.27;;;;;;;;;;5033293;28;20106;-60
2023/06/12 13:17:11;;;;;;;4.03;2.80;;;;;;;;;;5066314;28;20455;-59
2023/06/12 13:19:37;;;;;;;4.95;3.17;;;;;;;;;;5032991;28;20826;-60
2023/06/12 13:22:02;;;;;;;5.75;3.22;;;;;;;;;;5037875;28;20171;-59
2023/06/12 13:24:27;;;;;;;5.45;3.30;;;;;;;;;;5039201;28;20025;-59
2023/06/12 13:26:53;;;;;;;6.03;3.00;;;;;;;;;;5064163;28;20075;-59
2023/06/12 13:29:18;;;;;;;4.85;3.00;;;;;;;;;;5054924;28;20040;-59
2023/06/12 13:31:44;;;;;;;3.47;2.80;;;;;;;;;;5034878;28;20028;-59
2023/06/12 13:34:09;;;;;;;6.80;2.67;;;;;;;;;;5031181;28;20122;-59
2023/06/12 13:36:34;;;;;;;5.60;2.63;;;;;;;;;;5034352;28;20221;-59
2023/06/12 13:39:00;;;;;;;7.05;2.80;;;;;;;;;;5033869;28;20291;-59
2023/06/12 13:41:26;;;;;;;5.97;2.90;;;;;;;;;;5032489;28;20419;-60
2023/06/12 13:43:51;;;;;;;5.28;2.80;;;;;;;;;;5031288;28;20045;-61
2023/06/12 13:46:16;;;;;;;6.20;3.00;;;;;;;;;;5030699;28;20142;-61
2023/06/12 13:48:42;;;;;;;5.80;2.90;;;;;;;;;;5036379;28;20056;-59
2023/06/12 13:51:07;;;;;;;5.63;2.80;;;;;;;;;;5031923;28;20068;-60
2023/06/12 13:53:33;;;;;;;4.13;2.60;;;;;;;;;;5031496;28;20029;-59
2023/06/12 13:55:58;;;;;;;4.27;2.33;;;;;;;;;;5036224;28;20291;-59
2023/06/12 13:58:24;;;;;;;5.38;2.90;;;;;;;;;;5066716;28;20288;-60
2023/06/12 14:00:49;;;;;;;4.45;2.33;;;;;;;;;;5034069;28;20514;-58
2023/06/12 14:03:15;;;;;;;3.42;2.50;;;;;;;;;;5036513;28;20033;-59
2023/06/12 14:05:40;;;;;;;5.00;2.50;;;;;;;;;;5032187;28;20460;-60
2023/06/12 14:08:05;;;;;;;3.95;2.22;;;;;;;;;;5031419;28;20053;-59
2023/06/12 14:10:33;;;;;;;3.17;2.10;;;;;;;;;;5063041;28;20098;-60
2023/06/12 14:13:00;;;;;;;3.15;1.98;;;;;;;;;;5030341;28;20299;-61
2023/06/12 14:15:25;;;;;;;5.47;2.40;;;;;;;;;;5031763;28;20053;-60
2023/06/12 14:17:50;;;;;;;3.87;2.00;;;;;;;;;;5064068;28;20131;-60
2023/06/12 14:20:16;;;;;;;4.40;2.42;;;;;;;;;;5064088;28;20834;-61
2023/06/12 14:22:44;;;;;;;3.30;2.22;;;;;;;;;;5031057;28;20040;-61
2023/06/12 14:25:09;;;;;;;3.55;2.30;;;;;;;;;;5052411;28;20037;-60
2023/06/12 14:27:35;;;;;;;3.83;1.93;;;;;;;;;;5031981;28;20106;-60
2023/06/12 14:30:00;;;;;;;2.63;2.00;;;;;;;;;;5029181;28;20350;-59
2023/06/12 14:32:25;;;;;;;2.83;1.90;;;;;;;;;;5030507;28;20041;-59
2023/06/12 14:34:51;;;;;;;4.50;2.13;;;;;;;;;;5032087;28;20298;-59
2023/06/12 14:37:16;;;;;;;3.42;2.10;;;;;;;;;;5030444;28;20295;-59